Terminal Aerodrome Forecast
Issued by NWS Mt. Holly, NJ

Home | Current Version | Previous Version | Text Only | Print | Product List | Glossary On
Versions: 1 2 3 4 5 6 7 8 9 10 11 12 13 14 15 16 17 18 19 20 21 22 23 24 25 26 27 28 29 30 31 32 33 34 35 36 37 38 39 40 41 42 43 44 45 46 47 48 49
000
FTUS41 KPHI 210900 AAC
TAFABE
TAF AMD
KABE 210933Z 2110/2206 VRB02KT 4SM BR BKN005
      TEMPO 2110/2112 1SM BR
     FM211200 VRB03KT 6SM BR SCT025
      TEMPO 2112/2115 2SM BR BKN025
     FM211500 19005KT P6SM SCT025 BKN100
     FM211800 23007KT P6SM BKN250
     FM220300 27005KT P6SM SCT050=

USA.gov is the U.S. government's official web portal to all federal, state and local government web resources and services.